sensor_id;sensor_type;location;lat;lon;timestamp;P1;durP1;ratioP1;P2;durP2;ratioP2
24715;SDS011;12822;50.124;8.678;2023-08-20T00:01:41;12.93;;;5.70;;
24715;SDS011;12822;50.124;8.678;2023-08-20T00:04:07;8.05;;;5.07;;
24715;SDS011;12822;50.124;8.678;2023-08-20T00:06:34;11.88;;;5.60;;
24715;SDS011;12822;50.124;8.678;2023-08-20T00:09:00;9.48;;;4.95;;
24715;SDS011;12822;50.124;8.678;2023-08-20T00:11:26;10.95;;;5.20;;
24715;SDS011;12822;50.124;8.678;2023-08-20T00:13:52;6.85;;;5.30;;
24715;SDS011;12822;50.124;8.678;2023-08-20T00:16:18;13.85;;;5.30;;
24715;SDS011;12822;50.124;8.678;2023-08-20T00:18:44;8.13;;;4.97;;
24715;SDS011;12822;50.124;8.678;2023-08-20T00:21:10;9.30;;;5.38;;
24715;SDS011;12822;50.124;8.678;2023-08-20T00:23:36;10.45;;;5.88;;
24715;SDS011;12822;50.124;8.678;2023-08-20T00:26:03;10.45;;;5.85;;
24715;SDS011;12822;50.124;8.678;2023-08-20T00:28:29;8.38;;;5.40;;
24715;SDS011;12822;50.124;8.678;2023-08-20T00:30:55;6.88;;;5.78;;
24715;SDS011;12822;50.124;8.678;2023-08-20T00:33:23;6.30;;;4.90;;
24715;SDS011;12822;50.124;8.678;2023-08-20T00:35:49;11.05;;;5.28;;
24715;SDS011;12822;50.124;8.678;2023-08-20T00:38:15;8.10;;;5.22;;
24715;SDS011;12822;50.124;8.678;2023-08-20T00:40:41;7.63;;;5.45;;
24715;SDS011;12822;50.124;8.678;2023-08-20T00:43:07;9.38;;;6.47;;
24715;SDS011;12822;50.124;8.678;2023-08-20T00:45:33;10.25;;;6.30;;
24715;SDS011;12822;50.124;8.678;2023-08-20T00:47:59;9.50;;;5.85;;
24715;SDS011;12822;50.124;8.678;2023-08-20T00:50:25;10.48;;;6.05;;
24715;SDS011;12822;50.124;8.678;2023-08-20T00:52:51;9.38;;;5.68;;
24715;SDS011;12822;50.124;8.678;2023-08-20T00:55:17;5.68;;;4.93;;
24715;SDS011;12822;50.124;8.678;2023-08-20T00:57:43;6.18;;;5.53;;
24715;SDS011;12822;50.124;8.678;2023-08-20T01:00:09;8.55;;;5.28;;
24715;SDS011;12822;50.124;8.678;2023-08-20T01:02:36;7.90;;;5.78;;
24715;SDS011;12822;50.124;8.678;2023-08-20T01:05:03;9.35;;;5.60;;
24715;SDS011;12822;50.124;8.678;2023-08-20T01:12:33;9.65;;;6.13;;
24715;SDS011;12822;50.124;8.678;2023-08-20T01:15:00;8.82;;;5.97;;
24715;SDS011;12822;50.124;8.678;2023-08-20T01:17:26;10.27;;;5.90;;
24715;SDS011;12822;50.124;8.678;2023-08-20T01:19:52;9.95;;;5.90;;
24715;SDS011;12822;50.124;8.678;2023-08-20T01:22:35;9.48;;;6.20;;
24715;SDS011;12822;50.124;8.678;2023-08-20T01:30:12;10.98;;;6.10;;
24715;SDS011;12822;50.124;8.678;2023-08-20T01:32:38;10.88;;;6.85;;
24715;SDS011;12822;50.124;8.678;2023-08-20T01:35:07;9.48;;;6.13;;
24715;SDS011;12822;50.124;8.678;2023-08-20T01:37:33;12.90;;;6.50;;
24715;SDS011;12822;50.124;8.678;2023-08-20T01:39:59;8.32;;;5.63;;
24715;SDS011;12822;50.124;8.678;2023-08-20T01:42:25;7.88;;;5.63;;
24715;SDS011;12822;50.124;8.678;2023-08-20T01:44:51;8.73;;;6.10;;
24715;SDS011;12822;50.124;8.678;2023-08-20T01:47:17;8.73;;;6.15;;
24715;SDS011;12822;50.124;8.678;2023-08-20T01:49:43;10.05;;;6.18;;
24715;SDS011;12822;50.124;8.678;2023-08-20T01:52:09;11.10;;;6.88;;
24715;SDS011;12822;50.124;8.678;2023-08-20T01:54:35;10.75;;;6.90;;
24715;SDS011;12822;50.124;8.678;2023-08-20T01:57:01;11.57;;;6.53;;
24715;SDS011;12822;50.124;8.678;2023-08-20T01:59:27;11.48;;;6.63;;
24715;SDS011;12822;50.124;8.678;2023-08-20T02:01:53;12.50;;;6.75;;
24715;SDS011;12822;50.124;8.678;2023-08-20T02:04:19;10.30;;;6.55;;
24715;SDS011;12822;50.124;8.678;2023-08-20T02:06:45;11.88;;;6.50;;
24715;SDS011;12822;50.124;8.678;2023-08-20T02:09:11;14.60;;;7.53;;
24715;SDS011;12822;50.124;8.678;2023-08-20T02:11:36;13.80;;;6.63;;
24715;SDS011;12822;50.124;8.678;2023-08-20T02:14:03;15.05;;;6.70;;
24715;SDS011;12822;50.124;8.678;2023-08-20T02:16:29;9.95;;;6.65;;
24715;SDS011;12822;50.124;8.678;2023-08-20T02:18:55;11.35;;;6.68;;
24715;SDS011;12822;50.124;8.678;2023-08-20T02:21:21;13.98;;;6.72;;
24715;SDS011;12822;50.124;8.678;2023-08-20T02:23:47;15.25;;;6.93;;
24715;SDS011;12822;50.124;8.678;2023-08-20T02:26:13;10.95;;;6.90;;
24715;SDS011;12822;50.124;8.678;2023-08-20T02:28:40;11.85;;;6.38;;
24715;SDS011;12822;50.124;8.678;2023-08-20T02:31:06;9.80;;;6.43;;
24715;SDS011;12822;50.124;8.678;2023-08-20T02:33:32;10.73;;;6.90;;
24715;SDS011;12822;50.124;8.678;2023-08-20T02:36:01;12.35;;;7.15;;
24715;SDS011;12822;50.124;8.678;2023-08-20T02:38:28;12.20;;;7.03;;
24715;SDS011;12822;50.124;8.678;2023-08-20T02:40:54;13.15;;;7.00;;
24715;SDS011;12822;50.124;8.678;2023-08-20T02:43:20;8.93;;;6.60;;
24715;SDS011;12822;50.124;8.678;2023-08-20T02:45:46;8.90;;;6.40;;
24715;SDS011;12822;50.124;8.678;2023-08-20T02:48:12;9.93;;;6.80;;
24715;SDS011;12822;50.124;8.678;2023-08-20T02:50:38;12.27;;;6.93;;
24715;SDS011;12822;50.124;8.678;2023-08-20T02:53:04;11.50;;;6.65;;
24715;SDS011;12822;50.124;8.678;2023-08-20T02:55:30;10.50;;;6.90;;
24715;SDS011;12822;50.124;8.678;2023-08-20T02:57:57;10.88;;;6.72;;
24715;SDS011;12822;50.124;8.678;2023-08-20T03:00:23;11.80;;;6.80;;
24715;SDS011;12822;50.124;8.678;2023-08-20T03:02:49;10.32;;;6.85;;
24715;SDS011;12822;50.124;8.678;2023-08-20T03:05:15;8.52;;;7.28;;
24715;SDS011;12822;50.124;8.678;2023-08-20T03:07:41;9.45;;;6.45;;
24715;SDS011;12822;50.124;8.678;2023-08-20T03:10:07;10.38;;;7.35;;
24715;SDS011;12822;50.124;8.678;2023-08-20T03:12:33;17.15;;;7.65;;
24715;SDS011;12822;50.124;8.678;2023-08-20T03:14:59;11.82;;;7.35;;
24715;SDS011;12822;50.124;8.678;2023-08-20T03:17:25;12.52;;;8.23;;
24715;SDS011;12822;50.124;8.678;2023-08-20T03:19:58;9.55;;;7.60;;
24715;SDS011;12822;50.124;8.678;2023-08-20T03:22:25;10.75;;;7.68;;
24715;SDS011;12822;50.124;8.678;2023-08-20T03:24:51;14.90;;;7.70;;
24715;SDS011;12822;50.124;8.678;2023-08-20T03:27:17;10.98;;;8.05;;
24715;SDS011;12822;50.124;8.678;2023-08-20T03:29:43;10.15;;;7.50;;
24715;SDS011;12822;50.124;8.678;2023-08-20T03:32:09;11.98;;;7.13;;
24715;SDS011;12822;50.124;8.678;2023-08-20T03:34:35;12.05;;;7.95;;
24715;SDS011;12822;50.124;8.678;2023-08-20T03:37:02;13.02;;;7.80;;
24715;SDS011;12822;50.124;8.678;2023-08-20T03:39:28;14.57;;;8.10;;
24715;SDS011;12822;50.124;8.678;2023-08-20T03:41:54;13.77;;;8.65;;
24715;SDS011;12822;50.124;8.678;2023-08-20T03:44:20;8.88;;;7.50;;
24715;SDS011;12822;50.124;8.678;2023-08-20T03:46:46;9.95;;;7.85;;
24715;SDS011;12822;50.124;8.678;2023-08-20T03:49:12;12.30;;;7.93;;
24715;SDS011;12822;50.124;8.678;2023-08-20T03:51:38;11.45;;;8.07;;
24715;SDS011;12822;50.124;8.678;2023-08-20T03:54:06;10.75;;;7.97;;
24715;SDS011;12822;50.124;8.678;2023-08-20T03:56:32;10.07;;;8.20;;
24715;SDS011;12822;50.124;8.678;2023-08-20T03:58:58;11.55;;;8.27;;
24715;SDS011;12822;50.124;8.678;2023-08-20T04:01:24;10.45;;;8.60;;
24715;SDS011;12822;50.124;8.678;2023-08-20T04:03:50;13.18;;;8.27;;
24715;SDS011;12822;50.124;8.678;2023-08-20T04:06:15;12.57;;;8.60;;
24715;SDS011;12822;50.124;8.678;2023-08-20T04:08:41;16.98;;;8.40;;
24715;SDS011;12822;50.124;8.678;2023-08-20T04:11:07;14.13;;;8.27;;
24715;SDS011;12822;50.124;8.678;2023-08-20T04:13:34;10.98;;;9.10;;
24715;SDS011;12822;50.124;8.678;2023-08-20T04:16:00;13.23;;;9.07;;
24715;SDS011;12822;50.124;8.678;2023-08-20T04:18:26;12.80;;;8.20;;
24715;SDS011;12822;50.124;8.678;2023-08-20T04:20:52;12.00;;;8.95;;
24715;SDS011;12822;50.124;8.678;2023-08-20T04:23:21;13.15;;;7.85;;
24715;SDS011;12822;50.124;8.678;2023-08-20T04:25:47;14.00;;;9.30;;
24715;SDS011;12822;50.124;8.678;2023-08-20T04:28:13;13.10;;;8.80;;
24715;SDS011;12822;50.124;8.678;2023-08-20T04:30:39;16.98;;;8.30;;
24715;SDS011;12822;50.124;8.678;2023-08-20T04:33:05;11.88;;;8.25;;
24715;SDS011;12822;50.124;8.678;2023-08-20T04:35:31;12.18;;;7.95;;
24715;SDS011;12822;50.124;8.678;2023-08-20T04:37:57;10.80;;;8.77;;
24715;SDS011;12822;50.124;8.678;2023-08-20T04:40:23;13.57;;;9.13;;
24715;SDS011;12822;50.124;8.678;2023-08-20T04:42:51;12.40;;;8.23;;
24715;SDS011;12822;50.124;8.678;2023-08-20T04:45:17;13.77;;;9.13;;
24715;SDS011;12822;50.124;8.678;2023-08-20T04:47:44;18.02;;;8.60;;
24715;SDS011;12822;50.124;8.678;2023-08-20T04:50:10;12.70;;;8.80;;
24715;SDS011;12822;50.124;8.678;2023-08-20T04:52:36;17.25;;;9.57;;
24715;SDS011;12822;50.124;8.678;2023-08-20T04:55:02;12.38;;;8.70;;
24715;SDS011;12822;50.124;8.678;2023-08-20T04:57:29;11.85;;;8.05;;
24715;SDS011;12822;50.124;8.678;2023-08-20T04:59:55;15.00;;;9.13;;
24715;SDS011;12822;50.124;8.678;2023-08-20T05:02:21;13.63;;;8.63;;
24715;SDS011;12822;50.124;8.678;2023-08-20T05:04:47;12.65;;;8.65;;
24715;SDS011;12822;50.124;8.678;2023-08-20T05:07:13;16.88;;;9.32;;
24715;SDS011;12822;50.124;8.678;2023-08-20T05:09:39;13.40;;;8.18;;
24715;SDS011;12822;50.124;8.678;2023-08-20T05:12:05;15.18;;;8.75;;
24715;SDS011;12822;50.124;8.678;2023-08-20T05:14:31;11.63;;;8.27;;
24715;SDS011;12822;50.124;8.678;2023-08-20T05:16:57;13.32;;;9.00;;
24715;SDS011;12822;50.124;8.678;2023-08-20T05:19:23;12.30;;;8.45;;
24715;SDS011;12822;50.124;8.678;2023-08-20T05:21:49;13.20;;;8.77;;
24715;SDS011;12822;50.124;8.678;2023-08-20T05:24:15;18.38;;;9.10;;
24715;SDS011;12822;50.124;8.678;2023-08-20T05:26:41;12.43;;;9.00;;
24715;SDS011;12822;50.124;8.678;2023-08-20T05:29:07;10.52;;;8.40;;
24715;SDS011;12822;50.124;8.678;2023-08-20T05:31:33;16.88;;;9.05;;
24715;SDS011;12822;50.124;8.678;2023-08-20T05:33:59;14.38;;;9.40;;
24715;SDS011;12822;50.124;8.678;2023-08-20T05:36:25;11.23;;;8.98;;
24715;SDS011;12822;50.124;8.678;2023-08-20T05:38:51;16.08;;;9.68;;
24715;SDS011;12822;50.124;8.678;2023-08-20T05:41:17;15.32;;;9.20;;
24715;SDS011;12822;50.124;8.678;2023-08-20T05:43:43;15.93;;;8.95;;
24715;SDS011;12822;50.124;8.678;2023-08-20T05:46:09;12.48;;;8.63;;
24715;SDS011;12822;50.124;8.678;2023-08-20T05:48:35;11.10;;;9.07;;
24715;SDS011;12822;50.124;8.678;2023-08-20T05:51:01;14.98;;;8.57;;
24715;SDS011;12822;50.124;8.678;2023-08-20T05:53:27;11.90;;;8.68;;
24715;SDS011;12822;50.124;8.678;2023-08-20T05:55:53;17.35;;;8.27;;
24715;SDS011;12822;50.124;8.678;2023-08-20T05:58:19;16.00;;;8.23;;
24715;SDS011;12822;50.124;8.678;2023-08-20T06:00:45;12.05;;;8.93;;
24715;SDS011;12822;50.124;8.678;2023-08-20T06:03:12;13.20;;;8.43;;
24715;SDS011;12822;50.124;8.678;2023-08-20T06:05:38;13.45;;;8.70;;
24715;SDS011;12822;50.124;8.678;2023-08-20T06:08:04;16.80;;;8.90;;
24715;SDS011;12822;50.124;8.678;2023-08-20T06:10:31;11.15;;;8.50;;
24715;SDS011;12822;50.124;8.678;2023-08-20T06:12:57;13.85;;;8.13;;
24715;SDS011;12822;50.124;8.678;2023-08-20T06:15:23;14.43;;;8.30;;
24715;SDS011;12822;50.124;8.678;2023-08-20T06:17:49;12.38;;;8.10;;
24715;SDS011;12822;50.124;8.678;2023-08-20T06:20:15;11.63;;;8.52;;
24715;SDS011;12822;50.124;8.678;2023-08-20T06:22:43;13.20;;;7.93;;
24715;SDS011;12822;50.124;8.678;2023-08-20T06:25:09;11.88;;;7.97;;
24715;SDS011;12822;50.124;8.678;2023-08-20T06:27:35;16.35;;;8.57;;
24715;SDS011;12822;50.124;8.678;2023-08-20T06:30:01;14.07;;;8.20;;
24715;SDS011;12822;50.124;8.678;2023-08-20T06:32:27;10.68;;;7.75;;
24715;SDS011;12822;50.124;8.678;2023-08-20T06:34:53;12.10;;;7.75;;
24715;SDS011;12822;50.124;8.678;2023-08-20T06:37:19;9.77;;;7.72;;
24715;SDS011;12822;50.124;8.678;2023-08-20T06:39:45;10.95;;;7.60;;
24715;SDS011;12822;50.124;8.678;2023-08-20T06:42:11;10.30;;;7.07;;
24715;SDS011;12822;50.124;8.678;2023-08-20T06:44:37;12.90;;;7.57;;
24715;SDS011;12822;50.124;8.678;2023-08-20T06:47:03;13.27;;;7.25;;
24715;SDS011;12822;50.124;8.678;2023-08-20T06:49:29;10.27;;;7.75;;
24715;SDS011;12822;50.124;8.678;2023-08-20T06:51:55;13.60;;;8.02;;
24715;SDS011;12822;50.124;8.678;2023-08-20T06:54:21;10.05;;;7.10;;
24715;SDS011;12822;50.124;8.678;2023-08-20T06:56:47;10.68;;;7.07;;
24715;SDS011;12822;50.124;8.678;2023-08-20T06:59:13;10.38;;;6.80;;
24715;SDS011;12822;50.124;8.678;2023-08-20T07:01:39;14.90;;;6.50;;
24715;SDS011;12822;50.124;8.678;2023-08-20T07:04:05;9.75;;;5.90;;
24715;SDS011;12822;50.124;8.678;2023-08-20T07:06:31;10.40;;;6.38;;
24715;SDS011;12822;50.124;8.678;2023-08-20T07:08:57;8.57;;;6.00;;
24715;SDS011;12822;50.124;8.678;2023-08-20T07:11:26;9.13;;;5.85;;
24715;SDS011;12822;50.124;8.678;2023-08-20T07:13:52;9.20;;;6.30;;
24715;SDS011;12822;50.124;8.678;2023-08-20T07:16:18;8.05;;;5.60;;
24715;SDS011;12822;50.124;8.678;2023-08-20T07:18:44;10.15;;;6.25;;
24715;SDS011;12822;50.124;8.678;2023-08-20T07:21:10;8.07;;;6.43;;
24715;SDS011;12822;50.124;8.678;2023-08-20T07:23:36;11.27;;;5.63;;
24715;SDS011;12822;50.124;8.678;2023-08-20T07:26:06;10.32;;;6.13;;
24715;SDS011;12822;50.124;8.678;2023-08-20T07:28:35;12.10;;;6.22;;
24715;SDS011;12822;50.124;8.678;2023-08-20T07:31:20;9.00;;;6.90;;
24715;SDS011;12822;50.124;8.678;2023-08-20T07:33:46;10.02;;;6.32;;
24715;SDS011;12822;50.124;8.678;2023-08-20T07:36:13;9.77;;;5.82;;
24715;SDS011;12822;50.124;8.678;2023-08-20T07:38:39;8.60;;;6.43;;
24715;SDS011;12822;50.124;8.678;2023-08-20T07:41:08;17.27;;;6.32;;
24715;SDS011;12822;50.124;8.678;2023-08-20T07:43:34;11.30;;;6.43;;
24715;SDS011;12822;50.124;8.678;2023-08-20T07:46:00;7.63;;;5.97;;
24715;SDS011;12822;50.124;8.678;2023-08-20T07:48:26;8.43;;;6.57;;
24715;SDS011;12822;50.124;8.678;2023-08-20T07:50:52;8.25;;;5.85;;
24715;SDS011;12822;50.124;8.678;2023-08-20T07:53:18;8.95;;;5.45;;
24715;SDS011;12822;50.124;8.678;2023-08-20T07:55:44;8.82;;;6.32;;
24715;SDS011;12822;50.124;8.678;2023-08-20T07:58:10;10.02;;;5.72;;
24715;SDS011;12822;50.124;8.678;2023-08-20T08:00:36;9.13;;;6.43;;
24715;SDS011;12822;50.124;8.678;2023-08-20T08:03:02;9.63;;;6.25;;
24715;SDS011;12822;50.124;8.678;2023-08-20T08:05:28;11.18;;;6.88;;
24715;SDS011;12822;50.124;8.678;2023-08-20T08:07:54;7.57;;;6.13;;
24715;SDS011;12822;50.124;8.678;2023-08-20T08:10:20;11.43;;;6.07;;
24715;SDS011;12822;50.124;8.678;2023-08-20T08:12:46;8.07;;;6.43;;
24715;SDS011;12822;50.124;8.678;2023-08-20T08:15:12;10.23;;;6.15;;
24715;SDS011;12822;50.124;8.678;2023-08-20T08:17:38;9.30;;;6.82;;
24715;SDS011;12822;50.124;8.678;2023-08-20T08:20:04;9.70;;;6.93;;
24715;SDS011;12822;50.124;8.678;2023-08-20T08:22:31;10.18;;;6.82;;
24715;SDS011;12822;50.124;8.678;2023-08-20T08:24:57;9.82;;;7.43;;
24715;SDS011;12822;50.124;8.678;2023-08-20T08:27:23;10.68;;;7.00;;
24715;SDS011;12822;50.124;8.678;2023-08-20T08:29:50;7.85;;;6.07;;
24715;SDS011;12822;50.124;8.678;2023-08-20T08:32:16;8.30;;;7.43;;
24715;SDS011;12822;50.124;8.678;2023-08-20T08:34:42;9.70;;;6.78;;
24715;SDS011;12822;50.124;8.678;2023-08-20T08:37:08;8.70;;;6.80;;
24715;SDS011;12822;50.124;8.678;2023-08-20T08:39:34;11.02;;;7.47;;
24715;SDS011;12822;50.124;8.678;2023-08-20T08:42:03;9.60;;;7.20;;
24715;SDS011;12822;50.124;8.678;2023-08-20T08:44:32;8.60;;;7.47;;
24715;SDS011;12822;50.124;8.678;2023-08-20T08:46:59;10.88;;;7.55;;
24715;SDS011;12822;50.124;8.678;2023-08-20T08:49:25;10.30;;;7.20;;
24715;SDS011;12822;50.124;8.678;2023-08-20T08:51:52;9.55;;;6.90;;
24715;SDS011;12822;50.124;8.678;2023-08-20T08:54:20;8.18;;;6.80;;
24715;SDS011;12822;50.124;8.678;2023-08-20T08:56:46;12.30;;;7.50;;
24715;SDS011;12822;50.124;8.678;2023-08-20T08:59:12;8.13;;;7.05;;
24715;SDS011;12822;50.124;8.678;2023-08-20T09:01:38;9.93;;;7.78;;
24715;SDS011;12822;50.124;8.678;2023-08-20T09:04:07;10.90;;;7.05;;
24715;SDS011;12822;50.124;8.678;2023-08-20T09:06:46;8.68;;;7.55;;
24715;SDS011;12822;50.124;8.678;2023-08-20T09:09:12;10.50;;;7.05;;
24715;SDS011;12822;50.124;8.678;2023-08-20T09:11:38;11.10;;;7.38;;
24715;SDS011;12822;50.124;8.678;2023-08-20T09:14:04;8.35;;;7.55;;
24715;SDS011;12822;50.124;8.678;2023-08-20T09:16:31;10.85;;;6.43;;
24715;SDS011;12822;50.124;8.678;2023-08-20T09:18:59;9.02;;;6.43;;
24715;SDS011;12822;50.124;8.678;2023-08-20T09:21:28;9.90;;;6.25;;
24715;SDS011;12822;50.124;8.678;2023-08-20T09:23:55;7.55;;;6.32;;
24715;SDS011;12822;50.124;8.678;2023-08-20T09:26:22;8.68;;;7.50;;
24715;SDS011;12822;50.124;8.678;2023-08-20T09:28:48;9.25;;;6.90;;
24715;SDS011;12822;50.124;8.678;2023-08-20T09:31:14;8.88;;;6.20;;
24715;SDS011;12822;50.124;8.678;2023-08-20T09:33:53;7.60;;;6.90;;
24715;SDS011;12822;50.124;8.678;2023-08-20T09:36:29;8.53;;;6.20;;
24715;SDS011;12822;50.124;8.678;2023-08-20T09:38:55;7.90;;;6.20;;
24715;SDS011;12822;50.124;8.678;2023-08-20T09:41:22;5.85;;;5.25;;
24715;SDS011;12822;50.124;8.678;2023-08-20T09:43:48;7.45;;;5.75;;
24715;SDS011;12822;50.124;8.678;2023-08-20T09:46:18;8.13;;;6.40;;
24715;SDS011;12822;50.124;8.678;2023-08-20T09:48:45;8.35;;;6.13;;
24715;SDS011;12822;50.124;8.678;2023-08-20T09:51:13;6.97;;;6.28;;
24715;SDS011;12822;50.124;8.678;2023-08-20T09:54:03;6.90;;;5.63;;
24715;SDS011;12822;50.124;8.678;2023-08-20T09:56:27;6.78;;;5.75;;
24715;SDS011;12822;50.124;8.678;2023-08-20T09:58:54;7.85;;;5.75;;
24715;SDS011;12822;50.124;8.678;2023-08-20T10:01:20;9.75;;;6.18;;
24715;SDS011;12822;50.124;8.678;2023-08-20T10:03:47;6.55;;;5.95;;
24715;SDS011;12822;50.124;8.678;2023-08-20T10:06:13;8.20;;;5.70;;
24715;SDS011;12822;50.124;8.678;2023-08-20T10:08:39;7.25;;;5.65;;
24715;SDS011;12822;50.124;8.678;2023-08-20T10:11:05;7.30;;;5.70;;
24715;SDS011;12822;50.124;8.678;2023-08-20T10:13:31;7.78;;;6.25;;
24715;SDS011;12822;50.124;8.678;2023-08-20T10:15:57;8.73;;;6.72;;
24715;SDS011;12822;50.124;8.678;2023-08-20T10:18:23;9.25;;;6.43;;
24715;SDS011;12822;50.124;8.678;2023-08-20T10:20:50;6.30;;;5.63;;
24715;SDS011;12822;50.124;8.678;2023-08-20T10:23:19;7.93;;;5.75;;
24715;SDS011;12822;50.124;8.678;2023-08-20T10:25:47;5.80;;;5.30;;
24715;SDS011;12822;50.124;8.678;2023-08-20T10:28:19;6.47;;;5.32;;
24715;SDS011;12822;50.124;8.678;2023-08-20T10:33:34;5.82;;;5.07;;
24715;SDS011;12822;50.124;8.678;2023-08-20T10:36:06;6.85;;;5.85;;
24715;SDS011;12822;50.124;8.678;2023-08-20T10:38:35;8.15;;;5.47;;
24715;SDS011;12822;50.124;8.678;2023-08-20T10:41:01;8.70;;;5.18;;
24715;SDS011;12822;50.124;8.678;2023-08-20T10:48:32;4.90;;;4.30;;
24715;SDS011;12822;50.124;8.678;2023-08-20T10:53:27;6.70;;;4.65;;
24715;SDS011;12822;50.124;8.678;2023-08-20T10:55:54;5.28;;;4.18;;
24715;SDS011;12822;50.124;8.678;2023-08-20T10:58:32;6.17;;;3.60;;
24715;SDS011;12822;50.124;8.678;2023-08-20T11:01:14;4.25;;;3.70;;
24715;SDS011;12822;50.124;8.678;2023-08-20T11:03:41;4.72;;;3.60;;
24715;SDS011;12822;50.124;8.678;2023-08-20T11:06:07;3.85;;;3.00;;
24715;SDS011;12822;50.124;8.678;2023-08-20T11:08:33;4.05;;;3.20;;
24715;SDS011;12822;50.124;8.678;2023-08-20T11:10:59;3.30;;;3.00;;
24715;SDS011;12822;50.124;8.678;2023-08-20T11:13:26;3.78;;;3.13;;
24715;SDS011;12822;50.124;8.678;2023-08-20T11:15:52;5.32;;;3.28;;
24715;SDS011;12822;50.124;8.678;2023-08-20T11:18:18;4.97;;;3.05;;
24715;SDS011;12822;50.124;8.678;2023-08-20T11:20:44;4.35;;;3.08;;
24715;SDS011;12822;50.124;8.678;2023-08-20T11:23:10;5.28;;;3.40;;
24715;SDS011;12822;50.124;8.678;2023-08-20T11:25:41;4.68;;;2.78;;
24715;SDS011;12822;50.124;8.678;2023-08-20T11:28:07;3.88;;;2.30;;
24715;SDS011;12822;50.124;8.678;2023-08-20T11:30:33;3.05;;;2.35;;
24715;SDS011;12822;50.124;8.678;2023-08-20T11:32:59;5.45;;;2.70;;
24715;SDS011;12822;50.124;8.678;2023-08-20T11:35:25;5.75;;;3.15;;
24715;SDS011;12822;50.124;8.678;2023-08-20T11:37:52;4.53;;;2.90;;
24715;SDS011;12822;50.124;8.678;2023-08-20T11:40:21;4.53;;;2.65;;
24715;SDS011;12822;50.124;8.678;2023-08-20T11:42:50;3.30;;;3.00;;
24715;SDS011;12822;50.124;8.678;2023-08-20T11:45:16;5.22;;;2.80;;
24715;SDS011;12822;50.124;8.678;2023-08-20T11:47:42;3.75;;;3.08;;
24715;SDS011;12822;50.124;8.678;2023-08-20T11:50:09;4.50;;;3.17;;
24715;SDS011;12822;50.124;8.678;2023-08-20T11:52:36;4.78;;;3.10;;
24715;SDS011;12822;50.124;8.678;2023-08-20T11:57:31;4.50;;;3.28;;
24715;SDS011;12822;50.124;8.678;2023-08-20T12:00:03;3.63;;;2.88;;
24715;SDS011;12822;50.124;8.678;2023-08-20T12:02:29;4.30;;;3.05;;
24715;SDS011;12822;50.124;8.678;2023-08-20T12:04:56;4.75;;;3.15;;
24715;SDS011;12822;50.124;8.678;2023-08-20T12:07:26;5.22;;;3.15;;
24715;SDS011;12822;50.124;8.678;2023-08-20T12:09:53;4.80;;;3.03;;
24715;SDS011;12822;50.124;8.678;2023-08-20T12:12:19;3.10;;;2.80;;
24715;SDS011;12822;50.124;8.678;2023-08-20T12:14:46;3.67;;;2.70;;
24715;SDS011;12822;50.124;8.678;2023-08-20T12:17:12;4.32;;;2.95;;
24715;SDS011;12822;50.124;8.678;2023-08-20T12:19:38;4.22;;;2.75;;
24715;SDS011;12822;50.124;8.678;2023-08-20T12:22:04;3.20;;;2.85;;
24715;SDS011;12822;50.124;8.678;2023-08-20T12:24:30;5.13;;;2.28;;
24715;SDS011;12822;50.124;8.678;2023-08-20T12:26:56;3.55;;;2.70;;
24715;SDS011;12822;50.124;8.678;2023-08-20T12:29:22;4.70;;;2.88;;
24715;SDS011;12822;50.124;8.678;2023-08-20T12:31:48;4.50;;;2.70;;
24715;SDS011;12822;50.124;8.678;2023-08-20T12:34:14;4.63;;;2.70;;
24715;SDS011;12822;50.124;8.678;2023-08-20T12:36:40;2.67;;;2.40;;
24715;SDS011;12822;50.124;8.678;2023-08-20T12:39:06;3.03;;;2.50;;
24715;SDS011;12822;50.124;8.678;2023-08-20T12:41:33;5.05;;;2.47;;
24715;SDS011;12822;50.124;8.678;2023-08-20T12:44:01;2.63;;;2.40;;
24715;SDS011;12822;50.124;8.678;2023-08-20T12:46:27;2.60;;;2.28;;
24715;SDS011;12822;50.124;8.678;2023-08-20T12:48:53;5.40;;;2.40;;
24715;SDS011;12822;50.124;8.678;2023-08-20T12:51:19;4.15;;;2.42;;
24715;SDS011;12822;50.124;8.678;2023-08-20T12:53:45;3.58;;;1.85;;
24715;SDS011;12822;50.124;8.678;2023-08-20T12:56:11;2.80;;;2.00;;
24715;SDS011;12822;50.124;8.678;2023-08-20T12:58:37;4.72;;;2.63;;
24715;SDS011;12822;50.124;8.678;2023-08-20T13:01:03;3.42;;;2.45;;
24715;SDS011;12822;50.124;8.678;2023-08-20T13:03:29;4.40;;;2.45;;
24715;SDS011;12822;50.124;8.678;2023-08-20T13:05:55;5.35;;;2.50;;
24715;SDS011;12822;50.124;8.678;2023-08-20T13:08:22;5.93;;;2.40;;
24715;SDS011;12822;50.124;8.678;2023-08-20T13:10:57;4.13;;;2.63;;
24715;SDS011;12822;50.124;8.678;2023-08-20T13:13:24;2.40;;;2.10;;
24715;SDS011;12822;50.124;8.678;2023-08-20T13:15:51;3.33;;;2.40;;
24715;SDS011;12822;50.124;8.678;2023-08-20T13:18:17;3.83;;;2.40;;
24715;SDS011;12822;50.124;8.678;2023-08-20T13:20:43;4.22;;;2.30;;
24715;SDS011;12822;50.124;8.678;2023-08-20T13:23:09;4.32;;;1.90;;
24715;SDS011;12822;50.124;8.678;2023-08-20T13:25:35;5.57;;;2.10;;
24715;SDS011;12822;50.124;8.678;2023-08-20T13:28:02;5.05;;;2.50;;
24715;SDS011;12822;50.124;8.678;2023-08-20T13:30:28;3.08;;;2.25;;
24715;SDS011;12822;50.124;8.678;2023-08-20T13:32:54;6.00;;;2.63;;
24715;SDS011;12822;50.124;8.678;2023-08-20T13:35:20;3.58;;;2.50;;
24715;SDS011;12822;50.124;8.678;2023-08-20T13:37:47;5.70;;;2.53;;
24715;SDS011;12822;50.124;8.678;2023-08-20T13:40:13;3.80;;;2.50;;
24715;SDS011;12822;50.124;8.678;2023-08-20T13:42:39;3.10;;;2.20;;
24715;SDS011;12822;50.124;8.678;2023-08-20T13:45:05;5.30;;;2.38;;
24715;SDS011;12822;50.124;8.678;2023-08-20T13:47:32;3.30;;;2.40;;
24715;SDS011;12822;50.124;8.678;2023-08-20T13:49:58;2.85;;;2.30;;
24715;SDS011;12822;50.124;8.678;2023-08-20T13:52:24;5.88;;;2.45;;
24715;SDS011;12822;50.124;8.678;2023-08-20T13:54:50;5.45;;;2.88;;
24715;SDS011;12822;50.124;8.678;2023-08-20T13:57:16;4.63;;;2.70;;
24715;SDS011;12822;50.124;8.678;2023-08-20T13:59:42;2.70;;;2.40;;
24715;SDS011;12822;50.124;8.678;2023-08-20T14:02:08;3.55;;;2.50;;
24715;SDS011;12822;50.124;8.678;2023-08-20T14:04:34;3.70;;;2.65;;
24715;SDS011;12822;50.124;8.678;2023-08-20T14:07:00;3.78;;;2.63;;
24715;SDS011;12822;50.124;8.678;2023-08-20T14:09:26;5.05;;;2.67;;
24715;SDS011;12822;50.124;8.678;2023-08-20T14:11:52;5.05;;;2.40;;
24715;SDS011;12822;50.124;8.678;2023-08-20T14:14:17;3.35;;;2.47;;
24715;SDS011;12822;50.124;8.678;2023-08-20T14:16:43;5.03;;;2.60;;
24715;SDS011;12822;50.124;8.678;2023-08-20T14:19:09;4.65;;;2.53;;
24715;SDS011;12822;50.124;8.678;2023-08-20T14:21:36;3.50;;;2.75;;
24715;SDS011;12822;50.124;8.678;2023-08-20T14:24:01;5.20;;;2.63;;
24715;SDS011;12822;50.124;8.678;2023-08-20T14:26:27;4.05;;;2.97;;
24715;SDS011;12822;50.124;8.678;2023-08-20T14:28:54;3.65;;;2.90;;
24715;SDS011;12822;50.124;8.678;2023-08-20T14:31:20;7.07;;;2.95;;
24715;SDS011;12822;50.124;8.678;2023-08-20T14:33:47;3.38;;;2.88;;
24715;SDS011;12822;50.124;8.678;2023-08-20T14:36:13;3.65;;;2.80;;
24715;SDS011;12822;50.124;8.678;2023-08-20T14:38:39;3.92;;;3.05;;
24715;SDS011;12822;50.124;8.678;2023-08-20T14:41:04;6.10;;;3.78;;
24715;SDS011;12822;50.124;8.678;2023-08-20T14:43:31;5.18;;;3.30;;
24715;SDS011;12822;50.124;8.678;2023-08-20T14:45:58;9.98;;;3.63;;
24715;SDS011;12822;50.124;8.678;2023-08-20T14:48:24;4.05;;;3.45;;
24715;SDS011;12822;50.124;8.678;2023-08-20T14:50:50;5.68;;;4.03;;
24715;SDS011;12822;50.124;8.678;2023-08-20T14:53:16;5.05;;;3.72;;
24715;SDS011;12822;50.124;8.678;2023-08-20T14:55:43;5.72;;;3.85;;
24715;SDS011;12822;50.124;8.678;2023-08-20T14:58:09;6.65;;;4.00;;
24715;SDS011;12822;50.124;8.678;2023-08-20T15:00:35;9.18;;;3.80;;
24715;SDS011;12822;50.124;8.678;2023-08-20T15:03:01;7.35;;;3.58;;